Main page
METAR-TAF:

METAR-TAF

Airports :

Tabriz International Airport

Tabriz, Iran

latitude: 38-05N, longitude: 046-17E, elevation: 1367 m

Current weather observation

The report was made 15 minutes ago, at 01:30 UTC
Wind 4 kt from the East
Temperature 19°C
Humidity 49%
Pressure 1017 hPa
Visibility 10 km or more
Few clouds at a height of 4000 ft

METAR: OITT 200130Z 10004KT 9999 FEW040 19/08 Q1016 A3002

Time: 06:15 (01:45 UTC)

Forecast

The report was made 2 hours and 45 minutes ago, at 23:00 UTC
Forecast valid from 20 at 00 UTC to 21 at 06 UTC
Wind 8 kt from the Southwest
Visibility: 8000 m
Few clouds at a height of 3500 ft
Temporary
from 20 at 09 UTC to 20 at 15 UTC
Wind 16 kt from the Southwest
Few clouds at a height of 3500 ft, Cumulonimbus.
Scattered clouds at a height of 4000 ft
Scattered clouds at a height of 10000 ft

TAF: OITT 192300Z 2000/2106 22004MPS 8000 FEW035 TEMPO 2009/2015 22008MPS FEW035CB SCT040 SCT100

Weather observations and forecasts of more than 4000 airports (METAR and TAF reports).

The available stations are represented by yellow and red dots on the map.

Hover mouse over dot to see the name of the station.

Then click to see weather observations and forecasts.

To change the map : click on the green buttons with a black cross to zoom in, on the green button with a dash to zoom out, or on the green arrows for adjacent maps.


METAR-TAF: